createdAt,value
2017-03-31T00:00:21.581Z,67.02
2017-03-31T00:01:30.839Z,67.02
2017-03-31T00:02:40.747Z,66.35
2017-03-31T00:03:50.715Z,66.44
2017-03-31T00:05:00.333Z,67.02
2017-03-31T00:06:10.346Z,66.92
2017-03-31T00:07:20.287Z,66.92
2017-03-31T00:08:29.880Z,66.73
2017-03-31T00:09:39.830Z,66.73
2017-03-31T00:10:50.091Z,66.44
2017-03-31T00:12:00.046Z,66.35
2017-03-31T00:13:10.030Z,67.02
2017-03-31T00:14:19.935Z,66.83
2017-03-31T00:15:29.847Z,66.92
2017-03-31T00:16:40.178Z,66.92
2017-03-31T00:17:49.822Z,67.02
2017-03-31T00:18:59.469Z,66.92
2017-03-31T00:20:09.067Z,66.83
2017-03-31T00:21:18.675Z,66.83
2017-03-31T00:22:28.225Z,66.92
2017-03-31T00:23:38.129Z,66.35
2017-03-31T00:24:47.830Z,66.35
2017-03-31T00:25:57.735Z,66.35
2017-03-31T00:27:07.384Z,66.54
2017-03-31T00:28:17.602Z,66.73
2017-03-31T00:29:27.599Z,66.89
2017-03-31T00:30:37.592Z,66.79
2017-03-31T00:31:47.583Z,66.92
2017-03-31T00:32:57.491Z,66.89
2017-03-31T00:34:07.728Z,66.89
2017-03-31T00:35:17.371Z,66.89
2017-03-31T00:36:27.310Z,66.7
2017-03-31T00:37:36.938Z,66.89
2017-03-31T00:38:46.846Z,66.89
2017-03-31T00:39:56.720Z,66.79
2017-03-31T00:41:06.731Z,66.79
2017-03-31T00:42:15.694Z,67.46
2017-03-31T00:43:25.838Z,67.36
2017-03-31T00:44:35.477Z,67.08
2017-03-31T00:45:45.030Z,67.27
2017-03-31T00:46:54.987Z,67.65
2017-03-31T00:48:04.579Z,67.65
2017-03-31T00:49:14.809Z,67.65
2017-03-31T00:50:24.765Z,67.75
2017-03-31T00:51:34.605Z,67.84
2017-03-31T00:52:44.558Z,67.75
2017-03-31T00:53:54.462Z,67.84
2017-03-31T00:55:04.113Z,68.04
2017-03-31T00:56:13.706Z,68.19
2017-03-31T00:57:23.949Z,68.38
2017-03-31T00:58:33.863Z,68.1
2017-03-31T00:59:43.793Z,68
2017-03-31T01:00:53.708Z,68.38
2017-03-31T01:02:03.705Z,68.48
2017-03-31T01:03:13.910Z,68.1
2017-03-31T01:04:23.493Z,68.67
2017-03-31T01:05:33.380Z,68.38
2017-03-31T01:06:42.864Z,68.67
2017-03-31T01:07:52.814Z,69.05
2017-03-31T01:09:03.025Z,68.96
2017-03-31T01:10:12.931Z,69.05
2017-03-31T01:11:22.909Z,69.43
2017-03-31T01:12:32.204Z,69.72
2017-03-31T01:13:42.193Z,69.43
2017-03-31T01:14:51.821Z,69.62
2017-03-31T01:16:01.740Z,69.34
2017-03-31T01:17:11.378Z,69.43
2017-03-31T01:18:20.987Z,69.24
2017-03-31T01:19:30.581Z,69.24
2017-03-31T01:20:40.740Z,69.24
2017-03-31T01:21:50.670Z,69.62
2017-03-31T01:23:00.258Z,69.43
2017-03-31T01:24:09.554Z,69.43
2017-03-31T01:25:19.501Z,69.62
2017-03-31T01:26:29.721Z,69.72
2017-03-31T01:27:39.355Z,69.53
2017-03-31T01:28:49.263Z,69.72
2017-03-31T01:29:59.208Z,69.59
2017-03-31T01:31:08.887Z,69.34
2017-03-31T01:32:19.034Z,69.72
2017-03-31T01:33:28.617Z,69.62
2017-03-31T01:34:38.223Z,70.01
2017-03-31T01:35:48.266Z,69.97
2017-03-31T01:36:58.220Z,69.97
2017-03-31T01:38:08.076Z,69.97
2017-03-31T01:39:17.965Z,69.97
2017-03-31T01:40:27.625Z,70.16
2017-03-31T01:41:37.532Z,70.16
2017-03-31T01:42:47.605Z,69.97
2017-03-31T01:43:57.850Z,70.07
2017-03-31T01:45:07.781Z,70.26
2017-03-31T01:46:17.693Z,70.45
2017-03-31T01:47:27.644Z,70.92
2017-03-31T01:48:37.574Z,71.12
2017-03-31T01:49:47.512Z,70.83
2017-03-31T01:50:57.498Z,70.83
2017-03-31T01:52:07.076Z,70.92
2017-03-31T01:53:17.036Z,70.45
2017-03-31T01:54:27.021Z,70.45
2017-03-31T01:55:37.326Z,70.36
2017-03-31T01:56:47.259Z,70.54
2017-03-31T01:57:56.868Z,70.45
2017-03-31T01:59:06.831Z,70.26
2017-03-31T02:00:16.787Z,70.36
2017-03-31T02:01:26.983Z,70.36
2017-03-31T02:02:36.765Z,70.26
2017-03-31T02:03:46.736Z,70.64
2017-03-31T02:04:56.663Z,70.45
2017-03-31T02:06:06.668Z,70.26
2017-03-31T02:07:16.495Z,71.12
2017-03-31T02:08:26.466Z,71.12
2017-03-31T02:09:36.367Z,71.02
2017-03-31T02:10:46.370Z,71.12
2017-03-31T02:11:56.002Z,71.21
2017-03-31T02:13:06.175Z,70.83
2017-03-31T02:14:15.126Z,70.83
2017-03-31T02:15:25.047Z,70.73
2017-03-31T02:16:34.647Z,70.83
2017-03-31T02:17:44.255Z,70.83
2017-03-31T02:18:54.163Z,70.83
2017-03-31T02:20:04.105Z,71.02
2017-03-31T02:21:14.071Z,71.21
2017-03-31T02:22:23.663Z,71.12
2017-03-31T02:23:33.260Z,71.12
2017-03-31T02:24:43.160Z,71.12
2017-03-31T02:25:52.759Z,71.21
2017-03-31T02:27:02.735Z,71.08
2017-03-31T02:28:12.663Z,71.31
2017-03-31T02:29:25.510Z,71.66
2017-03-31T02:30:35.743Z,70.7
2017-03-31T02:31:45.701Z,71.18
2017-03-31T02:32:55.618Z,71.08
2017-03-31T02:34:05.245Z,70.98
2017-03-31T02:35:15.186Z,71.46
2017-03-31T02:36:25.390Z,71.46
2017-03-31T02:37:34.646Z,71.27
2017-03-31T02:38:44.554Z,71.46
2017-03-31T02:39:54.645Z,71.37
2017-03-31T02:41:04.265Z,71.46
2017-03-31T02:42:14.457Z,71.46
2017-03-31T02:43:24.082Z,71.46
2017-03-31T02:44:33.199Z,71.56
2017-03-31T02:45:42.786Z,71.75
2017-03-31T02:46:52.827Z,71.84
2017-03-31T02:48:02.984Z,71.84
2017-03-31T02:49:12.894Z,71.94
2017-03-31T02:50:22.523Z,71.66
2017-03-31T02:51:32.425Z,71.66
2017-03-31T02:52:42.355Z,71.66
2017-03-31T02:53:52.572Z,71.27
2017-03-31T02:55:02.459Z,71.46
2017-03-31T02:56:12.063Z,71.37
2017-03-31T02:57:21.963Z,71.75
2017-03-31T02:58:31.881Z,72.03
2017-03-31T02:59:41.451Z,72.13
2017-03-31T03:00:51.372Z,71.56
2017-03-31T03:02:01.438Z,72.32
2017-03-31T03:03:11.360Z,72.23
2017-03-31T03:04:21.407Z,72.32
2017-03-31T03:05:31.616Z,72.23
2017-03-31T03:06:41.602Z,72.32
2017-03-31T03:07:51.553Z,72.32
2017-03-31T03:09:01.523Z,72.61
2017-03-31T03:10:11.137Z,72.32
2017-03-31T03:11:20.336Z,72.23
2017-03-31T03:12:30.027Z,72.42
2017-03-31T03:13:39.719Z,72.32
2017-03-31T03:14:49.640Z,72.13
2017-03-31T03:15:59.697Z,72.8
2017-03-31T03:17:09.903Z,72.42
2017-03-31T03:18:19.827Z,72.8
2017-03-31T03:19:29.489Z,72.86
2017-03-31T03:20:39.417Z,73.08
2017-03-31T03:21:49.310Z,73.08
2017-03-31T03:22:59.258Z,72.89
2017-03-31T03:24:09.235Z,72.86
2017-03-31T03:25:19.142Z,72.8
2017-03-31T03:26:29.051Z,72.76
2017-03-31T03:27:39.004Z,73.24
2017-03-31T03:28:49.189Z,73.05
2017-03-31T03:29:59.106Z,73.33
2017-03-31T03:31:08.724Z,73.05
2017-03-31T03:32:18.868Z,72.96
2017-03-31T03:33:28.303Z,73.33
2017-03-31T03:34:38.168Z,73.43
2017-03-31T03:35:47.805Z,73.24
2017-03-31T03:36:57.768Z,73.62
2017-03-31T03:38:07.398Z,73.91
2017-03-31T03:39:17.456Z,73.62
2017-03-31T03:40:27.616Z,73.81
2017-03-31T03:41:36.941Z,73.62
2017-03-31T03:42:46.527Z,73.72
2017-03-31T03:43:56.194Z,73.52
2017-03-31T03:45:06.100Z,73.62
2017-03-31T03:46:16.348Z,73.81
2017-03-31T03:47:25.626Z,74.19
2017-03-31T03:48:35.620Z,74.29
2017-03-31T03:49:44.869Z,74.01
2017-03-31T03:50:54.454Z,74.19
2017-03-31T03:52:04.706Z,74.29
2017-03-31T03:53:13.974Z,74.19
2017-03-31T03:54:23.929Z,74.1
2017-03-31T03:55:33.508Z,74.54
2017-03-31T03:56:43.488Z,74.57
2017-03-31T03:57:53.696Z,74.48
2017-03-31T03:59:03.605Z,74.38
2017-03-31T04:00:13.573Z,74.38
2017-03-31T04:01:23.483Z,74.38
2017-03-31T04:02:33.383Z,74.19
2017-03-31T04:03:43.554Z,74.29
2017-03-31T04:04:53.616Z,74.25
2017-03-31T04:06:03.544Z,74.1
2017-03-31T04:07:13.455Z,74.35
2017-03-31T04:08:23.369Z,74.35
2017-03-31T04:09:33.522Z,74.82
2017-03-31T04:10:43.168Z,74.54
2017-03-31T04:11:53.107Z,74.54
2017-03-31T04:13:02.689Z,74.67
2017-03-31T04:14:12.363Z,74.67
2017-03-31T04:15:22.536Z,74.67
2017-03-31T04:16:32.138Z,74.77
2017-03-31T04:17:41.413Z,74.96
2017-03-31T04:18:51.478Z,74.77
2017-03-31T04:20:01.116Z,74.73
2017-03-31T04:21:10.684Z,74.57
2017-03-31T04:22:19.744Z,74.77
2017-03-31T04:23:29.660Z,74.86
2017-03-31T04:24:39.559Z,74.77
2017-03-31T04:25:49.600Z,74.77
2017-03-31T04:26:59.870Z,74.86
2017-03-31T04:28:09.808Z,74.77
2017-03-31T04:29:19.758Z,74.63
2017-03-31T04:30:29.041Z,74.63
2017-03-31T04:31:38.637Z,74.63
2017-03-31T04:32:48.791Z,74.77
2017-03-31T04:33:58.436Z,74.77
2017-03-31T04:35:08.025Z,75.11
2017-03-31T04:36:18.077Z,74.82
2017-03-31T04:37:27.670Z,75.4
2017-03-31T04:38:37.222Z,75.2
2017-03-31T04:39:46.856Z,75.3
2017-03-31T04:40:56.762Z,75.4
2017-03-31T04:42:06.353Z,75.4
2017-03-31T04:43:16.314Z,75.59
2017-03-31T04:44:26.533Z,75.4
2017-03-31T04:45:36.504Z,75.4
2017-03-31T04:46:46.206Z,75.59
2017-03-31T04:47:56.164Z,75.68
2017-03-31T04:49:05.784Z,75.68
2017-03-31T04:50:16.307Z,75.59
2017-03-31T04:51:26.244Z,75.78
2017-03-31T04:52:35.827Z,75.68
2017-03-31T04:53:45.471Z,75.78
2017-03-31T04:54:55.101Z,75.78
2017-03-31T04:56:04.989Z,75.96
2017-03-31T04:57:14.909Z,76.06
2017-03-31T04:58:24.861Z,75.96
2017-03-31T04:59:34.825Z,75.87
2017-03-31T05:00:44.146Z,75.87
2017-03-31T05:01:54.027Z,76.25
2017-03-31T05:03:03.972Z,76.06
2017-03-31T05:04:14.488Z,76.06
2017-03-31T05:05:24.144Z,76.16
2017-03-31T05:06:34.125Z,76.35
2017-03-31T05:07:43.653Z,76.16
2017-03-31T05:08:53.586Z,76.35
2017-03-31T05:10:03.188Z,76.16
2017-03-31T05:11:12.815Z,75.96
2017-03-31T05:12:22.487Z,76.44
2017-03-31T05:13:32.816Z,76.44
2017-03-31T05:14:42.758Z,76.25
2017-03-31T05:15:52.357Z,76.06
2017-03-31T05:17:02.276Z,76.16
2017-03-31T05:18:12.219Z,76.25
2017-03-31T05:19:22.390Z,75.96
2017-03-31T05:20:32.290Z,76.16
2017-03-31T05:21:42.223Z,76.16
2017-03-31T05:22:52.198Z,75.96
2017-03-31T05:24:01.852Z,76.16
2017-03-31T05:25:12.086Z,75.87
2017-03-31T05:26:22.352Z,76.06
2017-03-31T05:27:32.307Z,75.96
2017-03-31T05:28:41.925Z,76.44
2017-03-31T05:29:51.519Z,76.64
2017-03-31T05:31:01.481Z,76.54
2017-03-31T05:32:11.394Z,75.96
2017-03-31T05:33:21.011Z,76.16
2017-03-31T05:34:30.938Z,76.1
2017-03-31T05:35:40.838Z,76.25
2017-03-31T05:36:51.029Z,76.29
2017-03-31T05:38:00.955Z,76.25
2017-03-31T05:39:10.999Z,76.16
2017-03-31T05:40:20.935Z,76.35
2017-03-31T05:42:03.139Z,76.16
2017-03-31T05:43:13.062Z,76.29
2017-03-31T05:44:23.038Z,76.16
2017-03-31T05:45:32.705Z,76.01
2017-03-31T05:46:42.667Z,76.01
2017-03-31T05:47:52.511Z,76.29
2017-03-31T05:49:02.475Z,76.29
2017-03-31T05:50:12.441Z,75.91
2017-03-31T05:51:22.414Z,75.91
2017-03-31T05:52:32.354Z,75.91
2017-03-31T05:53:42.501Z,75.91
2017-03-31T05:54:52.491Z,76.01
2017-03-31T05:56:02.401Z,76.1
2017-03-31T05:57:12.330Z,76.1
2017-03-31T05:58:21.948Z,75.91
2017-03-31T05:59:31.788Z,75.62
2017-03-31T06:00:41.375Z,75.53
2017-03-31T06:01:51.334Z,75.72
2017-03-31T06:03:01.284Z,75.62
2017-03-31T06:04:10.869Z,75.72
2017-03-31T06:05:20.779Z,75.24
2017-03-31T06:06:30.690Z,75.43
2017-03-31T06:07:40.066Z,75.53
2017-03-31T06:08:49.660Z,75.53
2017-03-31T06:09:59.571Z,75.91
2017-03-31T06:11:09.083Z,75.81
2017-03-31T06:12:18.363Z,75.34
2017-03-31T06:13:28.353Z,75.24
2017-03-31T06:14:37.947Z,75.15
2017-03-31T06:15:47.875Z,75.05
2017-03-31T06:16:58.048Z,74.86
2017-03-31T06:18:07.963Z,75.24
2017-03-31T06:19:17.549Z,75.34
2017-03-31T06:20:27.541Z,75.15
2017-03-31T06:21:37.488Z,75.34
2017-03-31T06:22:47.644Z,75.62
2017-03-31T06:23:56.968Z,75.34
2017-03-31T06:25:06.600Z,75.43
2017-03-31T06:26:16.193Z,75.24
2017-03-31T06:27:26.163Z,75.24
2017-03-31T06:28:36.369Z,74.96
2017-03-31T06:29:45.666Z,75.05
2017-03-31T06:30:55.593Z,75.37
2017-03-31T06:32:05.497Z,74.8
2017-03-31T06:33:14.903Z,74.71
2017-03-31T06:34:24.769Z,74.61
2017-03-31T06:35:34.706Z,74.71
2017-03-31T06:36:44.298Z,74.8
2017-03-31T06:37:54.251Z,74.9
2017-03-31T06:39:03.903Z,74.32
2017-03-31T06:40:14.092Z,74.04
2017-03-31T06:41:23.683Z,74.84
2017-03-31T06:42:33.316Z,73.85
2017-03-31T06:43:43.243Z,74.46
2017-03-31T06:44:52.515Z,74.55
2017-03-31T06:46:02.711Z,74.27
2017-03-31T06:47:12.300Z,73.98
2017-03-31T06:48:22.218Z,73.79
2017-03-31T06:49:32.136Z,73.79
2017-03-31T06:50:41.735Z,73.69
2017-03-31T06:51:51.614Z,73.32
2017-03-31T06:53:01.557Z,73.32
2017-03-31T06:54:10.826Z,73.22
2017-03-31T06:55:20.429Z,73.16
2017-03-31T06:56:30.057Z,72.78
2017-03-31T06:57:40.328Z,72.97
2017-03-31T06:58:50.265Z,73.03
2017-03-31T07:00:00.276Z,72.87
2017-03-31T07:01:09.886Z,72.87
2017-03-31T07:02:19.802Z,72.58
2017-03-31T07:03:30.008Z,72.78
2017-03-31T07:04:39.899Z,72.39
2017-03-31T07:05:49.205Z,72.3
2017-03-31T07:06:58.797Z,72.3
2017-03-31T07:08:08.792Z,72.68
2017-03-31T07:09:18.984Z,71.92
2017-03-31T07:10:28.975Z,72.01
2017-03-31T07:11:38.595Z,72.11
2017-03-31T07:12:48.584Z,71.44
2017-03-31T07:13:58.500Z,71.63
2017-03-31T07:15:08.474Z,71.82
2017-03-31T07:16:18.102Z,71.34
2017-03-31T07:17:27.736Z,71.72
2017-03-31T07:18:37.638Z,70.77
2017-03-31T07:19:47.538Z,70.96
2017-03-31T07:20:57.701Z,71.25
2017-03-31T07:22:06.981Z,71.25
2017-03-31T07:23:16.576Z,71
2017-03-31T07:24:26.565Z,71.28
2017-03-31T07:25:36.260Z,70.71
2017-03-31T07:26:46.395Z,70.52
2017-03-31T07:27:56.348Z,70.42
2017-03-31T07:29:06.288Z,70.14
2017-03-31T07:30:16.228Z,70.07
2017-03-31T07:31:26.210Z,69.7
2017-03-31T07:32:36.083Z,69.21
2017-03-31T07:33:45.997Z,69.21
2017-03-31T07:34:55.919Z,69.02
2017-03-31T07:36:05.891Z,68.55
2017-03-31T07:37:15.801Z,68.45
2017-03-31T07:38:25.983Z,68.26
2017-03-31T07:39:35.886Z,68.55
2017-03-31T07:40:45.872Z,68.49
2017-03-31T07:41:55.883Z,68.01
2017-03-31T07:43:05.926Z,67.63
2017-03-31T07:44:16.127Z,67.63
2017-03-31T07:45:25.712Z,67.24
2017-03-31T07:46:35.731Z,67.53
2017-03-31T07:47:45.320Z,66.61
2017-03-31T07:48:55.317Z,66.99
2017-03-31T07:50:05.729Z,66.41
2017-03-31T07:51:15.782Z,66.32
2017-03-31T07:52:25.368Z,65.88
2017-03-31T07:53:34.963Z,66.45
2017-03-31T07:54:44.877Z,66.16
2017-03-31T07:55:55.048Z,65.49
2017-03-31T07:57:04.661Z,65.2
2017-03-31T07:58:14.575Z,65.49
2017-03-31T07:59:24.559Z,64.76
2017-03-31T08:00:34.488Z,64.56
2017-03-31T08:01:44.334Z,64.28
2017-03-31T08:02:55.783Z,63.89
2017-03-31T08:04:06.342Z,63.45
2017-03-31T08:05:15.932Z,63.26
2017-03-31T08:06:26.568Z,62.42
2017-03-31T08:07:37.086Z,61.98
2017-03-31T08:08:47.724Z,61.21
2017-03-31T08:09:57.926Z,60.66
2017-03-31T08:11:08.482Z,59.16
2017-03-31T08:12:18.991Z,59.47
2017-03-31T08:13:30.821Z,58.06
2017-03-31T08:14:41.367Z,55.46
2017-03-31T08:15:51.907Z,55.4
2017-03-31T08:17:02.422Z,54.46
2017-03-31T08:18:12.615Z,54.17
2017-03-31T08:19:23.060Z,53.72
2017-03-31T08:20:33.629Z,53.62
2017-03-31T08:21:43.421Z,52.78
2017-03-31T08:22:54.016Z,51.82
2017-03-31T08:24:04.522Z,51.36
2017-03-31T08:25:15.020Z,50.3
2017-03-31T08:26:25.558Z,49.94
2017-03-31T08:27:36.137Z,49.46
2017-03-31T08:28:46.411Z,49.29
2017-03-31T08:29:57.876Z,48.33
2017-03-31T08:31:08.648Z,47.75
2017-03-31T08:32:18.670Z,47.58
2017-03-31T08:33:28.955Z,46.71
2017-03-31T08:34:39.129Z,46.03
2017-03-31T08:35:48.689Z,45.48
2017-03-31T08:36:59.469Z,45.28
2017-03-31T08:38:10.067Z,44.8
2017-03-31T08:39:20.356Z,44.42
2017-03-31T08:40:30.569Z,43.64
2017-03-31T08:41:41.719Z,43.06
2017-03-31T08:42:52.503Z,43.08
2017-03-31T08:44:03.984Z,43.08
2017-03-31T08:45:14.254Z,42.29
2017-03-31T08:46:24.215Z,43.26
2017-03-31T08:47:34.397Z,42.87
2017-03-31T08:48:45.184Z,42.68
2017-03-31T08:49:55.438Z,42.77
2017-03-31T08:51:05.699Z,42.48
2017-03-31T08:52:16.842Z,42.5
2017-03-31T08:53:27.704Z,42.02
2017-03-31T08:54:38.192Z,41.94
2017-03-31T08:55:48.703Z,41.56
2017-03-31T08:56:59.249Z,41.29
2017-03-31T08:58:09.499Z,40.9
2017-03-31T08:59:20.669Z,40.73
2017-03-31T09:00:31.167Z,39.47
2017-03-31T09:01:41.408Z,39.29
2017-03-31T09:02:51.320Z,38.93
2017-03-31T09:04:01.912Z,38.15
2017-03-31T09:05:11.862Z,37.59
2017-03-31T09:06:22.382Z,36.93
2017-03-31T09:07:32.927Z,36.66
2017-03-31T09:08:43.427Z,35.59
2017-03-31T09:09:53.936Z,35.61
2017-03-31T09:11:04.146Z,34.85
2017-03-31T09:12:14.982Z,33.78
2017-03-31T09:13:25.147Z,33.62
2017-03-31T09:14:35.669Z,32.65
2017-03-31T09:15:45.539Z,33.23
2017-03-31T09:16:55.687Z,32.26
2017-03-31T09:18:06.467Z,32.73
2017-03-31T09:19:17.675Z,32.35
2017-03-31T09:20:28.182Z,31.95
2017-03-31T09:21:38.808Z,32.15
2017-03-31T09:22:49.336Z,32.13
2017-03-31T09:23:59.821Z,32.42
2017-03-31T09:25:10.016Z,32.13
2017-03-31T09:26:21.528Z,32.52
2017-03-31T09:27:32.113Z,32.42
2017-03-31T09:28:42.412Z,32.34
2017-03-31T09:29:53.002Z,32.44
2017-03-31T09:31:04.188Z,31.97
2017-03-31T09:32:14.468Z,31.77
2017-03-31T09:33:25.980Z,30.52
2017-03-31T09:34:36.173Z,30.72
2017-03-31T09:35:46.951Z,30.62
2017-03-31T09:36:58.523Z,30.72
2017-03-31T09:38:08.435Z,30.35
2017-03-31T09:39:19.642Z,29.57
2017-03-31T09:40:30.233Z,29.49
2017-03-31T09:41:40.989Z,29.39
2017-03-31T09:42:51.514Z,28.53
2017-03-31T09:44:02.689Z,28.43
2017-03-31T09:45:13.211Z,28.54
2017-03-31T09:46:23.501Z,28.54
2017-03-31T09:47:34.439Z,27.78
2017-03-31T09:48:44.651Z,26.13
2017-03-31T09:49:55.216Z,26.03
2017-03-31T09:51:05.802Z,26.31
2017-03-31T09:52:16.429Z,26.01
2017-03-31T09:53:27.889Z,26.79
2017-03-31T09:54:38.407Z,26.87
2017-03-31T09:55:48.927Z,26.58
2017-03-31T09:56:59.452Z,26.68
2017-03-31T09:58:09.669Z,26.29
2017-03-31T09:59:20.506Z,26.87
2017-03-31T10:00:30.727Z,26.01
2017-03-31T10:01:41.337Z,26.3
2017-03-31T10:02:51.855Z,26.01
2017-03-31T10:04:03.330Z,25.82
2017-03-31T10:05:14.158Z,26.02
2017-03-31T10:06:24.677Z,25.34
2017-03-31T10:07:35.359Z,25.82
2017-03-31T10:08:45.889Z,25.91
2017-03-31T10:09:56.154Z,26.09
2017-03-31T10:11:06.932Z,26.19
2017-03-31T10:12:17.265Z,26.86
2017-03-31T10:13:27.801Z,27.14
2017-03-31T10:14:38.032Z,27.8
2017-03-31T10:15:48.244Z,28.28
2017-03-31T10:16:59.063Z,28.45
2017-03-31T10:18:09.297Z,28.55
2017-03-31T10:19:19.493Z,28.94
2017-03-31T10:20:30.059Z,29.51
2017-03-31T10:21:39.879Z,29.12
2017-03-31T10:22:50.351Z,29.71
2017-03-31T10:24:00.881Z,29.98
2017-03-31T10:25:11.414Z,30.08
2017-03-31T10:26:22.081Z,30.08
2017-03-31T10:27:32.694Z,30.08
2017-03-31T10:28:43.638Z,30
2017-03-31T10:29:54.227Z,29.9
2017-03-31T10:31:04.558Z,29.32
2017-03-31T10:32:15.074Z,29.41
2017-03-31T10:33:25.007Z,29.72
2017-03-31T10:34:35.874Z,29.52
2017-03-31T10:35:46.375Z,29.24
2017-03-31T10:36:57.049Z,29.52
2017-03-31T10:38:07.820Z,29.33
2017-03-31T10:39:18.372Z,29.33
2017-03-31T10:40:28.835Z,29.52
2017-03-31T10:41:38.911Z,29.62
2017-03-31T10:42:48.814Z,29.04
2017-03-31T10:43:59.135Z,29.14
2017-03-31T10:45:09.644Z,29.32
2017-03-31T10:46:20.247Z,29.32
2017-03-31T10:47:30.853Z,29.62
2017-03-31T10:48:42.127Z,29.04
2017-03-31T10:49:52.645Z,29.43
2017-03-31T10:51:03.221Z,29.43
2017-03-31T10:52:14.058Z,28.65
2017-03-31T10:53:25.395Z,28.55
2017-03-31T10:54:35.968Z,28.65
2017-03-31T10:55:46.211Z,28.54
2017-03-31T10:56:56.777Z,29.02
2017-03-31T10:58:06.999Z,28.74
2017-03-31T10:59:17.242Z,28.93
2017-03-31T11:00:27.810Z,28.74
2017-03-31T11:01:38.340Z,28.85
2017-03-31T11:02:48.884Z,28.45
2017-03-31T11:03:59.445Z,28.75
2017-03-31T11:05:09.808Z,28.85
2017-03-31T11:06:20.337Z,28.85
2017-03-31T11:07:30.875Z,27.87
2017-03-31T11:08:41.506Z,28.07
2017-03-31T11:09:52.252Z,28.17
2017-03-31T11:11:02.793Z,28.05
2017-03-31T11:12:13.047Z,28.25
2017-03-31T11:13:23.567Z,27.67
2017-03-31T11:14:33.465Z,27.67
2017-03-31T11:15:45.215Z,27.96
2017-03-31T11:16:55.825Z,27.96
2017-03-31T11:18:06.083Z,27.96
2017-03-31T11:19:16.638Z,27.37
2017-03-31T11:20:27.186Z,28.33
2017-03-31T11:21:37.950Z,28.43
2017-03-31T11:22:49.484Z,28.14
2017-03-31T11:23:59.996Z,28.34
2017-03-31T11:25:10.554Z,28.54
2017-03-31T11:26:21.116Z,28.23
2017-03-31T11:27:31.972Z,28.34
2017-03-31T11:28:42.625Z,28.05
2017-03-31T11:29:54.134Z,28.25
2017-03-31T11:31:04.332Z,28.26
2017-03-31T11:32:14.856Z,27.97
2017-03-31T11:33:25.625Z,28.26
2017-03-31T11:34:36.156Z,28.08
2017-03-31T11:35:47.319Z,27.4
2017-03-31T11:36:57.585Z,27.5
2017-03-31T11:38:08.155Z,27.89
2017-03-31T11:39:19.206Z,27.59
2017-03-31T11:40:29.327Z,26.82
2017-03-31T11:41:39.880Z,27.69
2017-03-31T11:42:50.402Z,27.7
2017-03-31T11:44:00.633Z,26.84
2017-03-31T11:45:11.139Z,26.46
2017-03-31T11:46:21.757Z,26.18
2017-03-31T11:47:32.266Z,25.98
2017-03-31T11:48:42.847Z,25.79
2017-03-31T11:49:53.429Z,25.49
2017-03-31T11:51:03.875Z,25.48
2017-03-31T11:52:14.079Z,25.19
2017-03-31T11:53:24.307Z,25.37
2017-03-31T11:54:34.189Z,25.36
2017-03-31T11:55:44.418Z,25.26
2017-03-31T11:56:55.225Z,25.74
2017-03-31T11:58:05.748Z,26.11
2017-03-31T11:59:16.303Z,26.21
2017-03-31T12:00:26.591Z,26.68
2017-03-31T12:01:36.853Z,26.48
2017-03-31T12:02:47.661Z,27.14
2017-03-31T12:03:57.912Z,27.71
2017-03-31T12:05:08.510Z,27.71
2017-03-31T12:06:19.076Z,28.19
2017-03-31T12:07:29.635Z,28
2017-03-31T12:08:40.400Z,28.19
2017-03-31T12:09:50.589Z,28.19
2017-03-31T12:11:01.151Z,28.19
2017-03-31T12:12:12.461Z,27.62
2017-03-31T12:13:23.126Z,27.62
2017-03-31T12:14:33.890Z,27.61
2017-03-31T12:15:44.252Z,26.26
2017-03-31T12:16:54.445Z,26.84
2017-03-31T12:18:04.669Z,26.93
2017-03-31T12:19:14.868Z,26.53
2017-03-31T12:20:26.654Z,27.6
2017-03-31T12:21:36.570Z,27.6
2017-03-31T12:22:48.105Z,27.6
2017-03-31T12:23:58.160Z,27.97
2017-03-31T12:25:08.391Z,27.87
2017-03-31T12:26:18.831Z,28.07
2017-03-31T12:27:29.435Z,28.36
2017-03-31T12:28:39.679Z,28.45
2017-03-31T12:29:50.253Z,28.47
2017-03-31T12:31:00.587Z,28.56
2017-03-31T12:32:11.133Z,28.56
2017-03-31T12:33:21.470Z,28.18
2017-03-31T12:34:32.999Z,28.19
2017-03-31T12:35:43.544Z,28.49
2017-03-31T12:36:53.880Z,28
2017-03-31T12:38:04.734Z,28.19
2017-03-31T12:39:15.346Z,27.03
2017-03-31T12:40:26.042Z,27.61
2017-03-31T12:42:08.393Z,27.53
2017-03-31T12:43:19.191Z,27.43
2017-03-31T12:44:29.378Z,26.95
2017-03-31T12:45:39.928Z,27.62
2017-03-31T12:46:50.120Z,26.95
2017-03-31T12:48:00.754Z,26.65
2017-03-31T12:49:11.518Z,27.06
2017-03-31T12:50:22.686Z,26.86
2017-03-31T12:51:33.231Z,26.76
2017-03-31T12:52:43.753Z,26.48
2017-03-31T12:53:54.088Z,26.48
2017-03-31T12:55:04.845Z,26.67
2017-03-31T12:56:15.048Z,26.48
2017-03-31T12:57:25.606Z,26.18
2017-03-31T12:58:37.104Z,26.28
2017-03-31T12:59:47.604Z,25.79
2017-03-31T13:00:58.457Z,26.46
2017-03-31T13:02:08.997Z,26.37
2017-03-31T13:03:18.823Z,26.17
2017-03-31T13:04:29.457Z,26.56
2017-03-31T13:05:39.641Z,25.68
2017-03-31T13:06:50.484Z,26.07
2017-03-31T13:08:00.759Z,26.26
2017-03-31T13:09:11.400Z,26.45
2017-03-31T13:10:21.981Z,26.45
2017-03-31T13:11:32.058Z,26.54
2017-03-31T13:12:42.718Z,26.93
2017-03-31T13:13:53.253Z,26.92
2017-03-31T13:15:03.761Z,27.11
2017-03-31T13:16:14.336Z,27.6
2017-03-31T13:17:24.889Z,27.7
2017-03-31T13:18:35.358Z,27.7
2017-03-31T13:19:45.593Z,27.2
2017-03-31T13:20:56.198Z,27.97
2017-03-31T13:22:07.778Z,28.17
2017-03-31T13:23:18.369Z,28.07
2017-03-31T13:24:28.886Z,28.36
2017-03-31T13:25:39.397Z,28.45
2017-03-31T13:26:49.959Z,28.55
2017-03-31T13:28:01.482Z,28.28
2017-03-31T13:29:12.953Z,28.08
2017-03-31T13:30:24.722Z,28.08
2017-03-31T13:31:35.948Z,28.18
2017-03-31T13:32:46.518Z,28.18
2017-03-31T13:33:57.038Z,28.38
2017-03-31T13:35:07.562Z,28.38
2017-03-31T13:36:18.445Z,28.56
2017-03-31T13:37:29.646Z,28.96
2017-03-31T13:38:40.171Z,28.76
2017-03-31T13:39:50.695Z,29.34
2017-03-31T13:41:02.848Z,29.24
2017-03-31T13:42:13.644Z,29.34
2017-03-31T13:43:24.124Z,28.76
2017-03-31T13:44:34.904Z,28.76
2017-03-31T13:45:45.554Z,28.66
2017-03-31T13:46:55.506Z,28.96
2017-03-31T13:48:05.690Z,28.55
2017-03-31T13:49:16.599Z,28.75
2017-03-31T13:50:26.974Z,28.45
2017-03-31T13:51:37.633Z,28.28
2017-03-31T13:52:48.241Z,28.28
2017-03-31T13:53:58.952Z,27.6
2017-03-31T13:55:10.782Z,26.92
2017-03-31T13:56:21.387Z,26.43
2017-03-31T13:57:31.630Z,25.66
2017-03-31T13:58:42.199Z,25.08
2017-03-31T13:59:52.708Z,24.88
2017-03-31T14:01:03.174Z,24.88
2017-03-31T14:02:13.709Z,25.37
2017-03-31T14:03:23.645Z,25.18
2017-03-31T14:04:33.859Z,25.74
2017-03-31T14:05:43.778Z,25.84
2017-03-31T14:06:54.703Z,25.84
2017-03-31T14:08:05.242Z,26.23
2017-03-31T14:09:15.492Z,26.14
2017-03-31T14:10:26.101Z,26.42
2017-03-31T14:11:37.282Z,26.14
2017-03-31T14:12:47.731Z,26.53
2017-03-31T14:13:58.508Z,26.15
2017-03-31T14:15:09.855Z,25.76
2017-03-31T14:16:20.363Z,25.46
2017-03-31T14:17:30.555Z,25.55
2017-03-31T14:18:41.310Z,24.87
2017-03-31T14:19:51.492Z,25.46
2017-03-31T14:21:01.674Z,24.87
2017-03-31T14:22:12.198Z,24.87
2017-03-31T14:23:22.887Z,24.58
2017-03-31T14:24:33.694Z,24.87
2017-03-31T14:25:44.294Z,25.07
2017-03-31T14:26:54.820Z,25.16
2017-03-31T14:28:05.021Z,24.86
2017-03-31T14:29:15.566Z,24.68
2017-03-31T14:30:26.363Z,24.96
2017-03-31T14:31:36.939Z,24.78
2017-03-31T14:32:47.192Z,23.6
2017-03-31T14:33:57.700Z,23.91
2017-03-31T14:35:08.305Z,24.48
2017-03-31T14:36:18.779Z,24.38
2017-03-31T14:37:28.711Z,24.57
2017-03-31T14:38:38.580Z,24.48
2017-03-31T14:39:48.831Z,24.57
2017-03-31T14:40:59.424Z,24.48
2017-03-31T14:42:10.206Z,24.57
2017-03-31T14:43:20.893Z,24.48
2017-03-31T14:44:31.095Z,24.28
2017-03-31T14:45:41.285Z,24.67
2017-03-31T14:46:51.816Z,24.28
2017-03-31T14:48:02.756Z,24.18
2017-03-31T14:49:13.984Z,24.67
2017-03-31T14:50:24.245Z,23.5
2017-03-31T14:51:34.461Z,23.8
2017-03-31T14:52:44.993Z,23.99
2017-03-31T14:53:55.532Z,23.41
2017-03-31T14:55:05.729Z,23.7
2017-03-31T14:56:15.940Z,23.4
2017-03-31T14:57:26.502Z,23.98
2017-03-31T14:58:37.122Z,24.37
2017-03-31T14:59:48.837Z,24.56
2017-03-31T15:01:00.029Z,24.46
2017-03-31T15:02:10.594Z,24.46
2017-03-31T15:03:21.769Z,23.98
2017-03-31T15:04:31.672Z,24.37
2017-03-31T15:05:42.448Z,24.46
2017-03-31T15:06:52.231Z,24.27